createdAt,value
2023-03-15T00:02:07.995Z,100523.97
2023-03-15T00:04:40.875Z,100527.94
2023-03-15T00:07:09.789Z,100526.13
2023-03-15T00:09:39.222Z,100512.97
2023-03-15T00:12:08.075Z,100508.41
2023-03-15T00:14:37.768Z,100507.53
2023-03-15T00:17:07.097Z,100507.44
2023-03-15T00:19:41.120Z,100504.44
2023-03-15T00:22:09.459Z,100494.56
2023-03-15T00:24:38.044Z,100504.69
2023-03-15T00:27:06.869Z,100498.66
2023-03-15T00:29:35.331Z,100490.13
2023-03-15T00:32:03.426Z,100487.63
2023-03-15T00:34:34.159Z,100483.16
2023-03-15T00:37:02.165Z,100484.78
2023-03-15T00:39:30.373Z,100480.28
2023-03-15T00:41:58.845Z,100468.66
2023-03-15T00:44:32.052Z,100465.22
2023-03-15T00:47:02.726Z,100460.50
2023-03-15T00:49:34.314Z,100461.75
2023-03-15T00:52:02.314Z,100459.34
2023-03-15T00:54:33.837Z,100454.66
2023-03-15T00:57:02.268Z,100469.78
2023-03-15T00:59:35.410Z,100461.16
2023-03-15T01:02:06.498Z,100467.38
2023-03-15T01:04:36.393Z,100456.50
2023-03-15T01:07:05.463Z,100454.97
2023-03-15T01:09:33.583Z,100457.19
2023-03-15T01:12:04.479Z,100466.28
2023-03-15T01:14:35.891Z,100467.19
2023-03-15T01:17:04.618Z,100475.25
2023-03-15T01:19:32.897Z,100475.50
2023-03-15T01:22:01.832Z,100471.72
2023-03-15T01:24:29.950Z,100476.94
2023-03-15T01:26:58.081Z,100471.00
2023-03-15T01:29:25.966Z,100475.19
2023-03-15T01:31:54.915Z,100471.22
2023-03-15T01:34:23.460Z,100475.97
2023-03-15T01:36:55.593Z,100475.38
2023-03-15T01:39:23.574Z,100466.91
2023-03-15T01:41:51.413Z,100469.03
2023-03-15T01:44:20.225Z,100471.09
2023-03-15T01:46:48.416Z,100475.81
2023-03-15T01:49:31.485Z,100463.22
2023-03-15T01:52:05.925Z,100467.13
2023-03-15T01:54:35.040Z,100461.97
2023-03-15T01:57:24.260Z,100458.13
2023-03-15T02:00:17.409Z,100480.13
2023-03-15T02:03:00.100Z,100475.47
2023-03-15T02:05:33.221Z,100470.56
2023-03-15T02:08:02.778Z,100475.16
2023-03-15T02:10:36.148Z,100481.06
2023-03-15T02:13:09.278Z,100482.00
2023-03-15T02:15:37.996Z,100492.19
2023-03-15T02:18:06.118Z,100494.66
2023-03-15T02:21:08.986Z,100492.00
2023-03-15T02:23:37.899Z,100492.09
2023-03-15T02:26:32.324Z,100502.75
2023-03-15T02:29:01.594Z,100503.81
2023-03-15T02:31:29.725Z,100502.91
2023-03-15T02:33:57.982Z,100506.28
2023-03-15T02:36:28.756Z,100505.84
2023-03-15T02:39:02.216Z,100510.34
2023-03-15T02:41:35.698Z,100512.78
2023-03-15T02:44:17.017Z,100511.66
2023-03-15T02:46:49.182Z,100510.44
2023-03-15T02:49:17.740Z,100514.66
2023-03-15T02:51:46.042Z,100509.03
2023-03-15T02:54:14.274Z,100508.78
2023-03-15T02:56:45.259Z,100504.72
2023-03-15T02:59:14.769Z,100511.69
2023-03-15T03:01:46.276Z,100516.59
2023-03-15T03:04:14.599Z,100518.41
2023-03-15T03:06:44.547Z,100517.53
2023-03-15T03:09:13.479Z,100506.16
2023-03-15T03:11:41.870Z,100508.22
2023-03-15T03:14:09.958Z,100509.13
2023-03-15T03:16:38.089Z,100514.00
2023-03-15T03:19:08.155Z,100513.69
2023-03-15T03:21:40.079Z,100507.38
2023-03-15T03:24:08.496Z,100506.22
2023-03-15T03:27:13.196Z,100520.00
2023-03-15T03:29:42.569Z,100509.75
2023-03-15T03:32:11.712Z,100510.13
2023-03-15T03:34:39.980Z,100510.59
2023-03-15T03:37:08.463Z,100512.69
2023-03-15T03:39:37.018Z,100509.41
2023-03-15T03:42:05.708Z,100501.56
2023-03-15T03:44:33.620Z,100515.03
2023-03-15T03:47:04.755Z,100510.94
2023-03-15T03:49:33.043Z,100505.75
2023-03-15T03:52:04.285Z,100508.28
2023-03-15T03:54:32.510Z,100492.53
2023-03-15T03:57:00.800Z,100493.31
2023-03-15T03:59:28.970Z,100491.50
2023-03-15T04:01:57.276Z,100499.28
2023-03-15T04:04:30.679Z,100488.56
2023-03-15T04:06:58.947Z,100484.50
2023-03-15T04:09:27.319Z,100482.63
2023-03-15T04:12:01.974Z,100483.19
2023-03-15T04:14:30.055Z,100463.41
2023-03-15T04:16:58.486Z,100472.31
2023-03-15T04:19:28.377Z,100465.44
2023-03-15T04:21:56.629Z,100470.66
2023-03-15T04:24:25.794Z,100471.88
2023-03-15T04:26:58.153Z,100470.03
2023-03-15T04:29:26.547Z,100460.09
2023-03-15T04:31:55.888Z,100457.84
2023-03-15T04:34:28.886Z,100460.06
2023-03-15T04:36:57.560Z,100470.00
2023-03-15T04:39:26.116Z,100489.03
2023-03-15T04:41:55.381Z,100491.38
2023-03-15T04:44:27.203Z,100494.16
2023-03-15T04:46:55.977Z,100489.06
2023-03-15T04:49:24.262Z,100484.81
2023-03-15T04:51:52.177Z,100486.81
2023-03-15T04:54:20.229Z,100486.00
2023-03-15T04:56:48.303Z,100483.38
2023-03-15T04:59:16.287Z,100483.00
2023-03-15T05:01:44.442Z,100475.53
2023-03-15T05:04:13.962Z,100480.78
2023-03-15T05:06:41.911Z,100479.91
2023-03-15T05:09:10.115Z,100486.91
2023-03-15T05:11:38.213Z,100474.22
2023-03-15T05:14:06.334Z,100463.59
2023-03-15T05:16:34.716Z,100464.28
2023-03-15T05:19:04.070Z,100478.22
2023-03-15T05:21:35.403Z,100462.00
2023-03-15T05:24:04.789Z,100460.16
2023-03-15T05:26:33.017Z,100464.84
2023-03-15T05:29:00.912Z,100464.16
2023-03-15T05:31:29.118Z,100458.50
2023-03-15T05:33:57.367Z,100464.16
2023-03-15T05:36:25.701Z,100475.22
2023-03-15T05:38:54.256Z,100466.59
2023-03-15T05:41:24.744Z,100465.22
2023-03-15T05:43:53.158Z,100473.19
2023-03-15T05:46:23.051Z,100476.53
2023-03-15T05:48:51.439Z,100465.84
2023-03-15T05:51:28.266Z,100463.03
2023-03-15T05:53:56.526Z,100455.38
2023-03-15T05:56:24.576Z,100464.91
2023-03-15T05:58:52.751Z,100456.41
2023-03-15T06:01:21.123Z,100453.72
2023-03-15T06:03:53.794Z,100451.03
2023-03-15T06:06:21.883Z,100439.59
2023-03-15T06:08:50.070Z,100446.44
2023-03-15T06:11:18.786Z,100449.09
2023-03-15T06:13:47.183Z,100432.81
2023-03-15T06:16:18.092Z,100437.88
2023-03-15T06:18:45.990Z,100436.13
2023-03-15T06:21:14.060Z,100416.19
2023-03-15T06:23:42.736Z,100418.13
2023-03-15T06:26:11.283Z,100417.28
2023-03-15T06:28:39.332Z,100407.03
2023-03-15T06:31:11.826Z,100402.72
2023-03-15T06:33:42.405Z,100414.31
2023-03-15T06:36:10.898Z,100394.00
2023-03-15T06:38:39.437Z,100415.50
2023-03-15T06:41:08.994Z,100391.69
2023-03-15T06:43:42.848Z,100402.25
2023-03-15T06:46:16.742Z,100393.22
2023-03-15T06:48:45.180Z,100405.16
2023-03-15T06:51:13.215Z,100400.59
2023-03-15T06:53:42.116Z,100393.34
2023-03-15T06:56:10.301Z,100417.81
2023-03-15T06:58:38.603Z,100396.84
2023-03-15T07:01:12.023Z,100411.72
2023-03-15T07:03:41.326Z,100405.78
2023-03-15T07:06:09.694Z,100414.44
2023-03-15T07:08:41.676Z,100393.88
2023-03-15T07:11:10.195Z,100402.81
2023-03-15T07:13:38.230Z,100396.28
2023-03-15T07:16:08.884Z,100403.47
2023-03-15T07:18:36.734Z,100395.75
2023-03-15T07:21:07.298Z,100394.56
2023-03-15T07:23:35.257Z,100396.03
2023-03-15T07:26:03.491Z,100389.09
2023-03-15T07:28:31.793Z,100390.28
2023-03-15T07:31:05.223Z,100390.44
2023-03-15T07:33:36.884Z,100394.16
2023-03-15T07:36:07.187Z,100387.00
2023-03-15T07:38:36.628Z,100375.44
2023-03-15T07:41:07.900Z,100362.66
2023-03-15T07:43:35.900Z,100369.53
2023-03-15T07:46:04.114Z,100363.56
2023-03-15T07:48:35.166Z,100375.31
2023-03-15T07:51:02.973Z,100369.34
2023-03-15T07:53:34.895Z,100369.50
2023-03-15T07:56:03.003Z,100365.31
2023-03-15T07:58:31.119Z,100365.09
2023-03-15T08:01:00.149Z,100370.84
2023-03-15T08:03:28.540Z,100359.94
2023-03-15T08:05:57.853Z,100362.63
2023-03-15T08:08:30.322Z,100359.38
2023-03-15T08:10:59.759Z,100358.41
2023-03-15T08:13:28.525Z,100363.31
2023-03-15T08:15:57.173Z,100357.44
2023-03-15T08:18:29.980Z,100367.59
2023-03-15T08:20:59.586Z,100362.91
2023-03-15T08:23:28.084Z,100352.78
2023-03-15T08:25:57.284Z,100363.44
2023-03-15T08:28:26.047Z,100355.97
2023-03-15T08:30:54.033Z,100351.56
2023-03-15T08:33:24.009Z,100351.19
2023-03-15T08:35:55.169Z,100343.72
2023-03-15T08:38:23.929Z,100334.94
2023-03-15T08:40:59.757Z,100337.97
2023-03-15T08:43:27.974Z,100330.66
2023-03-15T08:46:01.453Z,100341.75
2023-03-15T08:48:31.811Z,100336.59
2023-03-15T08:51:09.313Z,100329.28
2023-03-15T08:53:38.714Z,100321.81
2023-03-15T08:56:10.845Z,100319.97
2023-03-15T08:58:42.512Z,100322.34
2023-03-15T09:01:14.585Z,100324.66
2023-03-15T09:03:45.780Z,100310.44
2023-03-15T09:06:14.751Z,100304.72
2023-03-15T09:08:42.547Z,100308.50
2023-03-15T09:11:10.857Z,100302.03
2023-03-15T09:13:38.779Z,100314.03
2023-03-15T09:16:10.792Z,100311.91
2023-03-15T09:18:40.874Z,100300.38
2023-03-15T09:21:09.049Z,100304.28
2023-03-15T09:23:39.056Z,100296.41
2023-03-15T09:26:10.535Z,100290.16
2023-03-15T09:28:38.756Z,100303.94
2023-03-15T09:31:07.652Z,100290.88
2023-03-15T09:33:37.933Z,100288.28
2023-03-15T09:36:07.839Z,100296.03
2023-03-15T09:38:36.454Z,100285.00
2023-03-15T09:41:05.007Z,100277.38
2023-03-15T09:43:54.936Z,100288.06
2023-03-15T09:46:31.005Z,100285.00
2023-03-15T09:49:18.189Z,100275.03
2023-03-15T09:51:54.985Z,100268.69
2023-03-15T09:54:52.379Z,100267.09
2023-03-15T09:57:47.164Z,100261.84
2023-03-15T10:00:21.655Z,100260.34
2023-03-15T10:02:59.456Z,100252.59
2023-03-15T10:05:57.628Z,100240.97
2023-03-15T10:08:26.169Z,100235.50
2023-03-15T10:11:01.056Z,100238.44
2023-03-15T10:13:51.765Z,100230.97
2023-03-15T10:16:52.952Z,100234.34
2023-03-15T10:20:01.628Z,100238.56
2023-03-15T10:22:58.091Z,100233.69
2023-03-15T10:25:37.094Z,100231.56
2023-03-15T10:28:26.072Z,100220.91
2023-03-15T10:31:01.405Z,100218.72
2023-03-15T10:33:33.497Z,100214.28
2023-03-15T10:36:11.582Z,100220.25
2023-03-15T10:38:45.107Z,100218.47
2023-03-15T10:41:23.499Z,100217.91
2023-03-15T10:44:04.913Z,100220.22
2023-03-15T10:46:35.780Z,100214.81
2023-03-15T10:49:10.140Z,100208.81
2023-03-15T10:51:47.592Z,100191.34
2023-03-15T10:54:17.368Z,100188.06
2023-03-15T10:56:53.691Z,100190.91
2023-03-15T10:59:24.683Z,100176.38
2023-03-15T11:02:14.748Z,100180.78
2023-03-15T11:04:49.735Z,100170.63
2023-03-15T11:07:18.737Z,100178.72
2023-03-15T11:09:54.021Z,100182.94
2023-03-15T11:12:26.913Z,100170.53
2023-03-15T11:15:14.346Z,100171.34
2023-03-15T11:17:47.101Z,100163.03
2023-03-15T11:20:32.741Z,100155.53
2023-03-15T11:23:16.287Z,100141.91
2023-03-15T11:25:46.778Z,100154.19
2023-03-15T11:28:19.745Z,100160.88
2023-03-15T11:30:49.427Z,100167.69
2023-03-15T11:33:38.545Z,100169.03
2023-03-15T11:36:18.252Z,100183.25
2023-03-15T11:38:47.942Z,100174.94
2023-03-15T11:41:34.009Z,100169.63
2023-03-15T11:44:14.463Z,100166.44
2023-03-15T11:46:48.291Z,100170.16
2023-03-15T11:49:22.647Z,100175.88
2023-03-15T11:51:51.204Z,100180.16
2023-03-15T11:54:20.360Z,100164.94
2023-03-15T11:57:06.628Z,100165.91
2023-03-15T11:59:46.362Z,100168.59
2023-03-15T12:02:14.475Z,100169.16
2023-03-15T12:04:47.762Z,100165.34
2023-03-15T12:07:24.901Z,100168.63
2023-03-15T12:10:05.150Z,100166.34
2023-03-15T12:12:39.685Z,100161.72
2023-03-15T12:15:20.366Z,100164.84
2023-03-15T12:17:57.908Z,100155.38
2023-03-15T12:20:41.314Z,100154.19
2023-03-15T12:23:15.972Z,100146.69
2023-03-15T12:26:04.157Z,100144.78
2023-03-15T12:28:41.681Z,100154.31
2023-03-15T12:31:13.608Z,100150.88
2023-03-15T12:34:04.091Z,100147.19
2023-03-15T12:36:40.465Z,100145.06
2023-03-15T12:39:17.956Z,100153.03
2023-03-15T12:41:47.758Z,100153.38
2023-03-15T12:44:32.504Z,100143.75
2023-03-15T12:47:05.275Z,100142.16
2023-03-15T12:49:45.075Z,100143.84
2023-03-15T12:52:16.297Z,100145.47
2023-03-15T12:54:49.720Z,100137.97
2023-03-15T12:57:48.412Z,100139.28
2023-03-15T13:00:21.432Z,100134.31
2023-03-15T13:03:04.691Z,100134.72
2023-03-15T13:05:37.761Z,100143.13
2023-03-15T13:08:11.816Z,100136.56
2023-03-15T13:11:20.663Z,100143.59
2023-03-15T13:14:01.443Z,100157.69
2023-03-15T13:17:04.770Z,100147.06
2023-03-15T13:19:42.137Z,100147.44
2023-03-15T13:22:27.945Z,100143.75
2023-03-15T13:25:13.609Z,100148.91
2023-03-15T13:27:57.173Z,100150.38
2023-03-15T13:30:38.416Z,100138.88
2023-03-15T13:33:12.095Z,100148.84
2023-03-15T13:35:58.166Z,100157.09
2023-03-15T13:38:38.348Z,100148.44
2023-03-15T13:41:25.867Z,100139.44
2023-03-15T13:44:05.506Z,100136.22
2023-03-15T13:46:34.976Z,100137.06
2023-03-15T13:49:03.261Z,100126.31
2023-03-15T13:51:33.839Z,100134.69
2023-03-15T13:54:03.871Z,100130.72
2023-03-15T13:56:48.869Z,100124.31
2023-03-15T13:59:18.482Z,100127.47
2023-03-15T14:01:46.874Z,100118.06
2023-03-15T14:04:18.297Z,100116.09
2023-03-15T14:06:49.759Z,100119.19
2023-03-15T14:09:24.654Z,100115.09
2023-03-15T14:12:06.545Z,100115.09
2023-03-15T14:14:37.792Z,100117.63
2023-03-15T14:17:22.070Z,100125.72
2023-03-15T14:19:55.970Z,100106.66
2023-03-15T14:22:31.373Z,100118.16
2023-03-15T14:25:20.537Z,100114.59
2023-03-15T14:27:49.163Z,100123.72
2023-03-15T14:30:25.365Z,100117.50
2023-03-15T14:32:59.217Z,100114.81
2023-03-15T14:35:33.795Z,100129.03
2023-03-15T14:38:14.764Z,100129.06
2023-03-15T14:40:44.167Z,100123.09
2023-03-15T14:43:17.135Z,100126.53
2023-03-15T14:45:47.585Z,100124.41
2023-03-15T14:48:32.277Z,100108.75
2023-03-15T14:51:04.690Z,100105.22
2023-03-15T14:53:36.625Z,100107.31
2023-03-15T14:56:05.933Z,100102.78
2023-03-15T14:58:34.075Z,100098.81
2023-03-15T15:01:04.661Z,100101.09
2023-03-15T15:03:42.484Z,100096.81
2023-03-15T15:06:14.000Z,100097.06
2023-03-15T15:08:47.749Z,100084.59
2023-03-15T15:11:16.511Z,100083.75
2023-03-15T15:13:45.871Z,100086.88
2023-03-15T15:16:14.142Z,100085.16
2023-03-15T15:18:42.089Z,100080.03
2023-03-15T15:21:18.064Z,100076.91
2023-03-15T15:23:57.878Z,100079.16
2023-03-15T15:26:29.130Z,100075.91
2023-03-15T15:28:59.851Z,100108.56
2023-03-15T15:31:30.400Z,100098.66
2023-03-15T15:34:04.359Z,100088.34
2023-03-15T15:36:36.602Z,100096.00
2023-03-15T15:39:07.523Z,100094.69
2023-03-15T15:41:35.835Z,100092.53
2023-03-15T15:44:16.402Z,100097.06
2023-03-15T15:46:46.342Z,100092.34
2023-03-15T15:49:15.088Z,100092.00
2023-03-15T15:51:47.588Z,100094.94
2023-03-15T15:54:27.106Z,100094.91
2023-03-15T15:56:59.832Z,100098.44
2023-03-15T15:59:28.771Z,100100.69
2023-03-15T16:02:01.085Z,100111.00
2023-03-15T16:04:30.807Z,100103.25
2023-03-15T16:07:05.028Z,100117.09
2023-03-15T16:09:36.502Z,100120.97
2023-03-15T16:12:14.870Z,100126.91
2023-03-15T16:14:44.458Z,100127.53
2023-03-15T16:17:19.187Z,100121.19
2023-03-15T16:19:50.358Z,100127.59
2023-03-15T16:22:21.614Z,100130.38
2023-03-15T16:24:54.303Z,100128.13
2023-03-15T16:27:25.440Z,100134.47
2023-03-15T16:29:55.519Z,100123.56
2023-03-15T16:32:40.893Z,100139.53
2023-03-15T16:35:16.090Z,100134.63
2023-03-15T16:37:46.308Z,100132.50
2023-03-15T16:40:19.236Z,100133.50
2023-03-15T16:42:49.616Z,100137.75
2023-03-15T16:45:18.004Z,100142.09
2023-03-15T16:47:49.276Z,100145.88
2023-03-15T16:50:18.654Z,100148.69
2023-03-15T16:52:48.693Z,100149.59
2023-03-15T16:55:24.424Z,100153.13
2023-03-15T16:57:53.109Z,100151.78
2023-03-15T17:00:21.606Z,100150.63
2023-03-15T17:02:54.672Z,100147.97
2023-03-15T17:05:25.242Z,100141.50
2023-03-15T17:07:55.735Z,100151.88
2023-03-15T17:10:27.814Z,100143.81
2023-03-15T17:13:03.737Z,100144.16
2023-03-15T17:15:32.994Z,100143.44
2023-03-15T17:18:22.072Z,100144.06
2023-03-15T17:20:54.959Z,100146.00
2023-03-15T17:23:24.605Z,100140.13
2023-03-15T17:25:53.885Z,100136.94
2023-03-15T17:28:27.937Z,100143.94
2023-03-15T17:31:14.015Z,100147.72
2023-03-15T17:33:45.033Z,100130.47
2023-03-15T17:36:15.690Z,100130.41
2023-03-15T17:38:44.217Z,100128.72
2023-03-15T17:41:24.492Z,100128.50
2023-03-15T17:43:53.404Z,100133.97
2023-03-15T17:46:28.379Z,100136.44
2023-03-15T17:48:58.497Z,100130.78
2023-03-15T17:51:32.242Z,100141.16
2023-03-15T17:54:01.977Z,100140.53
2023-03-15T17:56:30.741Z,100144.06
2023-03-15T17:59:01.233Z,100142.34
2023-03-15T18:01:30.196Z,100146.00
2023-03-15T18:04:13.637Z,100142.56
2023-03-15T18:06:42.219Z,100150.72
2023-03-15T18:09:13.750Z,100154.69
2023-03-15T18:11:46.336Z,100144.06
2023-03-15T18:14:16.453Z,100138.31
2023-03-15T18:16:50.429Z,100140.22
2023-03-15T18:19:18.879Z,100130.47
2023-03-15T18:21:46.780Z,100134.13
2023-03-15T18:24:16.957Z,100132.84
2023-03-15T18:26:45.145Z,100135.19
2023-03-15T18:29:15.922Z,100136.16
2023-03-15T18:31:44.977Z,100140.22
2023-03-15T18:34:16.034Z,100142.69
2023-03-15T18:36:50.591Z,100115.16
2023-03-15T18:39:19.202Z,100125.88
2023-03-15T18:41:47.314Z,100125.97
2023-03-15T18:44:15.859Z,100138.31
2023-03-15T18:46:46.526Z,100141.91
2023-03-15T18:49:17.170Z,100132.63
2023-03-15T18:51:45.645Z,100118.28
2023-03-15T18:54:16.612Z,100120.75
2023-03-15T18:56:48.678Z,100120.63
2023-03-15T18:59:17.291Z,100120.31
2023-03-15T19:01:46.802Z,100123.50
2023-03-15T19:04:15.358Z,100123.75
2023-03-15T19:06:44.025Z,100120.09
2023-03-15T19:09:16.276Z,100125.66
2023-03-15T19:11:44.659Z,100123.97
2023-03-15T19:14:13.377Z,100113.03
2023-03-15T19:16:43.120Z,100101.25
2023-03-15T19:19:11.872Z,100108.22
2023-03-15T19:21:42.791Z,100116.25
2023-03-15T19:24:11.169Z,100120.97
2023-03-15T19:26:39.537Z,100116.66
2023-03-15T19:29:11.570Z,100110.38
2023-03-15T19:31:39.943Z,100111.09
2023-03-15T19:34:08.202Z,100109.28
2023-03-15T19:36:36.664Z,100106.59
2023-03-15T19:39:07.081Z,100105.34
2023-03-15T19:41:35.398Z,100101.69
2023-03-15T19:44:04.074Z,100111.31
2023-03-15T19:46:38.761Z,100104.88
2023-03-15T19:49:08.452Z,100106.59
2023-03-15T19:51:37.091Z,100105.53
2023-03-15T19:54:06.184Z,100101.88
2023-03-15T19:56:38.082Z,100098.34
2023-03-15T19:59:12.695Z,100097.38
2023-03-15T20:01:42.668Z,100089.88
2023-03-15T20:04:11.503Z,100091.50
2023-03-15T20:06:41.276Z,100095.03
2023-03-15T20:09:11.792Z,100097.81
2023-03-15T20:11:39.991Z,100088.94
2023-03-15T20:14:08.433Z,100084.44
2023-03-15T20:16:37.259Z,100081.63
2023-03-15T20:19:06.004Z,100081.00
2023-03-15T20:21:38.763Z,100078.13
2023-03-15T20:24:09.275Z,100081.13
2023-03-15T20:26:41.263Z,100074.28
2023-03-15T20:29:09.910Z,100068.94
2023-03-15T20:31:40.457Z,100076.84
2023-03-15T20:34:12.538Z,100071.72
2023-03-15T20:36:43.213Z,100068.41
2023-03-15T20:39:13.454Z,100072.25
2023-03-15T20:41:43.718Z,100073.13
2023-03-15T20:44:11.934Z,100071.63
2023-03-15T20:46:41.690Z,100075.03
2023-03-15T20:49:17.479Z,100072.47
2023-03-15T20:51:45.944Z,100084.13
2023-03-15T20:54:14.564Z,100079.19
2023-03-15T20:56:43.275Z,100084.00
2023-03-15T20:59:12.519Z,100076.44
2023-03-15T21:01:49.942Z,100070.63
2023-03-15T21:04:18.040Z,100069.97
2023-03-15T21:06:49.715Z,100065.59
2023-03-15T21:09:19.573Z,100064.75
2023-03-15T21:11:51.794Z,100064.75
2023-03-15T21:14:21.168Z,100071.06
2023-03-15T21:16:49.634Z,100066.78
2023-03-15T21:19:23.186Z,100073.81
2023-03-15T21:21:52.802Z,100073.81
2023-03-15T21:24:21.989Z,100071.16
2023-03-15T21:26:55.108Z,100062.06
2023-03-15T21:29:23.473Z,100064.31
2023-03-15T21:31:51.782Z,100058.97
2023-03-15T21:34:20.360Z,100056.28
2023-03-15T21:36:49.166Z,100066.78
2023-03-15T21:39:17.942Z,100070.50
2023-03-15T21:41:47.600Z,100059.72
2023-03-15T21:44:15.712Z,100055.13
2023-03-15T21:46:43.973Z,100058.75
2023-03-15T21:49:12.527Z,100051.78
2023-03-15T21:51:46.368Z,100044.94
2023-03-15T21:54:14.727Z,100052.88
2023-03-15T21:56:43.733Z,100038.75
2023-03-15T21:59:12.733Z,100035.22
2023-03-15T22:01:42.124Z,100020.34
2023-03-15T22:04:15.397Z,100021.00
2023-03-15T22:06:44.205Z,100028.38
2023-03-15T22:09:12.415Z,100029.47
2023-03-15T22:11:41.203Z,100035.75
2023-03-15T22:14:10.671Z,100030.38
2023-03-15T22:16:39.326Z,100034.16
2023-03-15T22:19:07.626Z,100019.06
2023-03-15T22:21:36.212Z,100026.88
2023-03-15T22:24:04.758Z,100024.19
2023-03-15T22:26:43.523Z,100028.88
2023-03-15T22:29:13.366Z,100028.88
2023-03-15T22:31:41.407Z,100028.47
2023-03-15T22:34:11.508Z,100040.03
2023-03-15T22:36:40.218Z,100029.47
2023-03-15T22:39:09.287Z,100034.81
2023-03-15T22:41:38.791Z,100039.06
2023-03-15T22:44:06.963Z,100028.81
2023-03-15T22:46:36.834Z,100030.50
2023-03-15T22:49:06.152Z,100032.22
2023-03-15T22:51:40.682Z,100024.00
2023-03-15T22:54:09.650Z,100016.28
2023-03-15T22:56:39.979Z,100011.16
2023-03-15T22:59:09.002Z,100015.13
2023-03-15T23:01:37.524Z,100001.94
2023-03-15T23:04:05.886Z,99994.78
2023-03-15T23:06:35.167Z,100005.72
2023-03-15T23:09:06.759Z,100003.78
2023-03-15T23:11:37.708Z,100001.94
2023-03-15T23:14:05.925Z,99999.16
2023-03-15T23:16:35.798Z,100008.91
2023-03-15T23:19:04.494Z,100012.97
2023-03-15T23:21:32.699Z,100008.47
2023-03-15T23:24:03.330Z,100000.91
2023-03-15T23:26:37.493Z,99994.69
2023-03-15T23:29:11.103Z,99997.38
2023-03-15T23:31:44.448Z,99988.25
2023-03-15T23:34:13.527Z,99987.41
2023-03-15T23:36:45.319Z,99991.06
2023-03-15T23:39:13.930Z,99989.34
2023-03-15T23:41:48.143Z,99982.50
2023-03-15T23:44:16.544Z,99987.28
2023-03-15T23:46:44.861Z,99981.66
2023-03-15T23:49:13.901Z,99984.94
2023-03-15T23:51:44.468Z,99974.34
2023-03-15T23:54:12.844Z,99975.97
2023-03-15T23:56:44.868Z,99991.25
2023-03-15T23:59:21.992Z,99979.72
